sensor_id;sensor_type;location;lat;lon;timestamp;P1;durP1;ratioP1;P2;durP2;ratioP2
20828;SDS011;10575;50.124;8.582;2024-03-06T00:02:22;18.67;;;10.30;;
20828;SDS011;10575;50.124;8.582;2024-03-06T00:04:48;16.50;;;10.07;;
20828;SDS011;10575;50.124;8.582;2024-03-06T00:07:13;18.98;;;11.25;;
20828;SDS011;10575;50.124;8.582;2024-03-06T00:09:47;16.80;;;10.50;;
20828;SDS011;10575;50.124;8.582;2024-03-06T00:12:13;21.15;;;11.05;;
20828;SDS011;10575;50.124;8.582;2024-03-06T00:17:29;19.85;;;11.93;;
20828;SDS011;10575;50.124;8.582;2024-03-06T00:19:54;22.83;;;11.07;;
20828;SDS011;10575;50.124;8.582;2024-03-06T00:22:20;18.25;;;10.90;;
20828;SDS011;10575;50.124;8.582;2024-03-06T00:24:46;16.27;;;10.10;;
20828;SDS011;10575;50.124;8.582;2024-03-06T00:27:13;16.63;;;9.88;;
20828;SDS011;10575;50.124;8.582;2024-03-06T00:55:28;14.30;;;8.23;;
20828;SDS011;10575;50.124;8.582;2024-03-06T00:57:53;12.45;;;7.05;;
20828;SDS011;10575;50.124;8.582;2024-03-06T01:00:19;13.80;;;8.13;;
20828;SDS011;10575;50.124;8.582;2024-03-06T01:02:44;15.27;;;8.05;;
20828;SDS011;10575;50.124;8.582;2024-03-06T01:05:10;15.52;;;9.00;;
20828;SDS011;10575;50.124;8.582;2024-03-06T01:17:23;17.55;;;9.48;;
20828;SDS011;10575;50.124;8.582;2024-03-06T01:19:49;17.98;;;10.32;;
20828;SDS011;10575;50.124;8.582;2024-03-06T01:22:15;15.43;;;9.27;;
20828;SDS011;10575;50.124;8.582;2024-03-06T01:24:41;18.98;;;10.13;;
20828;SDS011;10575;50.124;8.582;2024-03-06T01:27:07;16.50;;;9.65;;
20828;SDS011;10575;50.124;8.582;2024-03-06T01:29:33;14.45;;;9.65;;
20828;SDS011;10575;50.124;8.582;2024-03-06T01:31:59;16.50;;;9.88;;
20828;SDS011;10575;50.124;8.582;2024-03-06T01:34:24;16.08;;;9.65;;
20828;SDS011;10575;50.124;8.582;2024-03-06T01:36:51;18.60;;;10.52;;
20828;SDS011;10575;50.124;8.582;2024-03-06T01:39:17;17.65;;;9.32;;
20828;SDS011;10575;50.124;8.582;2024-03-06T01:41:49;15.20;;;9.63;;
20828;SDS011;10575;50.124;8.582;2024-03-06T01:44:18;15.38;;;9.80;;
20828;SDS011;10575;50.124;8.582;2024-03-06T01:46:44;16.15;;;9.13;;
20828;SDS011;10575;50.124;8.582;2024-03-06T01:49:11;13.98;;;8.80;;
20828;SDS011;10575;50.124;8.582;2024-03-06T01:51:38;12.60;;;7.72;;
20828;SDS011;10575;50.124;8.582;2024-03-06T01:54:05;15.55;;;8.82;;
20828;SDS011;10575;50.124;8.582;2024-03-06T01:56:31;15.35;;;8.48;;
20828;SDS011;10575;50.124;8.582;2024-03-06T01:59:00;15.32;;;9.15;;
20828;SDS011;10575;50.124;8.582;2024-03-06T02:01:27;14.75;;;9.32;;
20828;SDS011;10575;50.124;8.582;2024-03-06T02:03:53;14.60;;;7.75;;
20828;SDS011;10575;50.124;8.582;2024-03-06T02:06:19;13.75;;;8.07;;
20828;SDS011;10575;50.124;8.582;2024-03-06T02:08:46;12.85;;;8.07;;
20828;SDS011;10575;50.124;8.582;2024-03-06T02:11:11;15.90;;;8.13;;
20828;SDS011;10575;50.124;8.582;2024-03-06T02:13:39;14.20;;;8.40;;
20828;SDS011;10575;50.124;8.582;2024-03-06T02:16:05;11.93;;;7.32;;
20828;SDS011;10575;50.124;8.582;2024-03-06T02:18:31;11.40;;;7.60;;
20828;SDS011;10575;50.124;8.582;2024-03-06T02:20:56;12.52;;;8.15;;
20828;SDS011;10575;50.124;8.582;2024-03-06T02:23:22;11.32;;;7.80;;
20828;SDS011;10575;50.124;8.582;2024-03-06T02:25:48;12.77;;;7.55;;
20828;SDS011;10575;50.124;8.582;2024-03-06T02:28:15;11.90;;;7.47;;
20828;SDS011;10575;50.124;8.582;2024-03-06T02:30:41;17.02;;;8.75;;
20828;SDS011;10575;50.124;8.582;2024-03-06T02:33:07;16.75;;;9.27;;
20828;SDS011;10575;50.124;8.582;2024-03-06T02:35:33;17.20;;;9.52;;
20828;SDS011;10575;50.124;8.582;2024-03-06T02:38:00;16.65;;;9.65;;
20828;SDS011;10575;50.124;8.582;2024-03-06T02:40:26;17.80;;;9.93;;
20828;SDS011;10575;50.124;8.582;2024-03-06T02:42:52;15.85;;;9.30;;
20828;SDS011;10575;50.124;8.582;2024-03-06T02:45:17;14.57;;;8.70;;
20828;SDS011;10575;50.124;8.582;2024-03-06T02:47:44;14.57;;;8.68;;
20828;SDS011;10575;50.124;8.582;2024-03-06T02:50:09;12.77;;;8.50;;
20828;SDS011;10575;50.124;8.582;2024-03-06T02:52:35;16.50;;;9.25;;
20828;SDS011;10575;50.124;8.582;2024-03-06T02:55:01;14.93;;;7.65;;
20828;SDS011;10575;50.124;8.582;2024-03-06T02:57:27;13.52;;;8.45;;
20828;SDS011;10575;50.124;8.582;2024-03-06T02:59:53;13.40;;;8.38;;
20828;SDS011;10575;50.124;8.582;2024-03-06T03:02:20;13.48;;;8.27;;
20828;SDS011;10575;50.124;8.582;2024-03-06T03:04:45;13.02;;;7.95;;
20828;SDS011;10575;50.124;8.582;2024-03-06T03:07:11;12.25;;;7.57;;
20828;SDS011;10575;50.124;8.582;2024-03-06T03:09:37;14.43;;;8.30;;
20828;SDS011;10575;50.124;8.582;2024-03-06T03:12:05;11.65;;;7.03;;
20828;SDS011;10575;50.124;8.582;2024-03-06T03:14:31;11.93;;;7.15;;
20828;SDS011;10575;50.124;8.582;2024-03-06T03:16:56;12.52;;;7.63;;
20828;SDS011;10575;50.124;8.582;2024-03-06T03:19:22;12.13;;;7.30;;
20828;SDS011;10575;50.124;8.582;2024-03-06T03:21:47;14.07;;;7.65;;
20828;SDS011;10575;50.124;8.582;2024-03-06T03:24:13;13.05;;;7.28;;
20828;SDS011;10575;50.124;8.582;2024-03-06T03:26:38;14.73;;;7.88;;
20828;SDS011;10575;50.124;8.582;2024-03-06T03:29:04;12.00;;;7.10;;
20828;SDS011;10575;50.124;8.582;2024-03-06T03:31:30;13.07;;;7.15;;
20828;SDS011;10575;50.124;8.582;2024-03-06T03:33:56;12.05;;;6.90;;
20828;SDS011;10575;50.124;8.582;2024-03-06T03:36:22;12.07;;;7.35;;
20828;SDS011;10575;50.124;8.582;2024-03-06T03:38:48;10.57;;;6.60;;
20828;SDS011;10575;50.124;8.582;2024-03-06T03:41:13;13.02;;;7.15;;
20828;SDS011;10575;50.124;8.582;2024-03-06T03:43:39;11.70;;;6.88;;
20828;SDS011;10575;50.124;8.582;2024-03-06T03:46:05;14.05;;;7.13;;
20828;SDS011;10575;50.124;8.582;2024-03-06T03:48:31;10.68;;;6.50;;
20828;SDS011;10575;50.124;8.582;2024-03-06T03:51:00;16.65;;;8.02;;
20828;SDS011;10575;50.124;8.582;2024-03-06T03:53:27;12.55;;;7.25;;
20828;SDS011;10575;50.124;8.582;2024-03-06T03:55:53;12.45;;;7.05;;
20828;SDS011;10575;50.124;8.582;2024-03-06T03:58:18;10.38;;;6.50;;
20828;SDS011;10575;50.124;8.582;2024-03-06T04:00:44;13.05;;;7.28;;
20828;SDS011;10575;50.124;8.582;2024-03-06T04:03:09;11.80;;;7.15;;
20828;SDS011;10575;50.124;8.582;2024-03-06T04:05:35;11.13;;;7.05;;
20828;SDS011;10575;50.124;8.582;2024-03-06T04:08:03;10.70;;;6.53;;
20828;SDS011;10575;50.124;8.582;2024-03-06T04:10:31;9.80;;;6.38;;
20828;SDS011;10575;50.124;8.582;2024-03-06T04:12:57;10.50;;;6.65;;
20828;SDS011;10575;50.124;8.582;2024-03-06T04:15:24;11.95;;;7.15;;
20828;SDS011;10575;50.124;8.582;2024-03-06T04:17:50;16.67;;;6.78;;
20828;SDS011;10575;50.124;8.582;2024-03-06T04:20:16;11.48;;;7.20;;
20828;SDS011;10575;50.124;8.582;2024-03-06T04:22:41;11.50;;;6.88;;
20828;SDS011;10575;50.124;8.582;2024-03-06T04:25:07;9.45;;;6.15;;
20828;SDS011;10575;50.124;8.582;2024-03-06T04:27:33;9.02;;;6.38;;
20828;SDS011;10575;50.124;8.582;2024-03-06T04:29:59;8.63;;;6.03;;
20828;SDS011;10575;50.124;8.582;2024-03-06T04:32:24;8.80;;;5.85;;
20828;SDS011;10575;50.124;8.582;2024-03-06T04:34:52;10.80;;;5.97;;
20828;SDS011;10575;50.124;8.582;2024-03-06T04:37:18;8.48;;;5.28;;
20828;SDS011;10575;50.124;8.582;2024-03-06T04:39:44;10.75;;;6.28;;
20828;SDS011;10575;50.124;8.582;2024-03-06T04:42:09;7.97;;;5.38;;
20828;SDS011;10575;50.124;8.582;2024-03-06T04:44:35;10.55;;;5.35;;
20828;SDS011;10575;50.124;8.582;2024-03-06T04:47:01;8.43;;;5.30;;
20828;SDS011;10575;50.124;8.582;2024-03-06T04:49:27;8.15;;;5.05;;
20828;SDS011;10575;50.124;8.582;2024-03-06T04:51:53;7.22;;;4.97;;
20828;SDS011;10575;50.124;8.582;2024-03-06T04:54:18;11.10;;;5.82;;
20828;SDS011;10575;50.124;8.582;2024-03-06T04:56:44;8.48;;;5.03;;
20828;SDS011;10575;50.124;8.582;2024-03-06T04:59:09;8.98;;;5.47;;
20828;SDS011;10575;50.124;8.582;2024-03-06T05:01:35;8.68;;;5.53;;
20828;SDS011;10575;50.124;8.582;2024-03-06T05:04:00;9.20;;;4.93;;
20828;SDS011;10575;50.124;8.582;2024-03-06T05:06:26;10.15;;;5.00;;
20828;SDS011;10575;50.124;8.582;2024-03-06T05:08:51;10.65;;;4.93;;
20828;SDS011;10575;50.124;8.582;2024-03-06T05:11:17;11.73;;;6.35;;
20828;SDS011;10575;50.124;8.582;2024-03-06T05:13:42;14.60;;;7.75;;
20828;SDS011;10575;50.124;8.582;2024-03-06T05:16:08;12.13;;;6.78;;
20828;SDS011;10575;50.124;8.582;2024-03-06T05:18:34;9.70;;;5.88;;
20828;SDS011;10575;50.124;8.582;2024-03-06T05:21:00;11.40;;;6.18;;
20828;SDS011;10575;50.124;8.582;2024-03-06T05:23:25;10.55;;;6.00;;
20828;SDS011;10575;50.124;8.582;2024-03-06T05:25:51;9.55;;;6.03;;
20828;SDS011;10575;50.124;8.582;2024-03-06T05:28:16;12.88;;;6.00;;
20828;SDS011;10575;50.124;8.582;2024-03-06T05:30:42;10.57;;;6.35;;
20828;SDS011;10575;50.124;8.582;2024-03-06T05:33:07;14.00;;;6.10;;
20828;SDS011;10575;50.124;8.582;2024-03-06T05:35:33;10.75;;;6.38;;
20828;SDS011;10575;50.124;8.582;2024-03-06T05:37:58;9.82;;;6.00;;
20828;SDS011;10575;50.124;8.582;2024-03-06T05:40:23;9.82;;;6.35;;
20828;SDS011;10575;50.124;8.582;2024-03-06T05:42:49;10.95;;;6.53;;
20828;SDS011;10575;50.124;8.582;2024-03-06T05:45:14;12.38;;;6.35;;
20828;SDS011;10575;50.124;8.582;2024-03-06T05:47:40;10.93;;;6.45;;
20828;SDS011;10575;50.124;8.582;2024-03-06T05:50:06;9.27;;;5.82;;
20828;SDS011;10575;50.124;8.582;2024-03-06T05:52:32;13.70;;;6.20;;
20828;SDS011;10575;50.124;8.582;2024-03-06T05:54:58;11.90;;;6.88;;
20828;SDS011;10575;50.124;8.582;2024-03-06T05:57:24;10.95;;;6.65;;
20828;SDS011;10575;50.124;8.582;2024-03-06T05:59:50;10.68;;;6.40;;
20828;SDS011;10575;50.124;8.582;2024-03-06T06:02:15;9.88;;;6.18;;
20828;SDS011;10575;50.124;8.582;2024-03-06T06:04:44;14.45;;;7.57;;
20828;SDS011;10575;50.124;8.582;2024-03-06T06:07:10;14.27;;;7.63;;
20828;SDS011;10575;50.124;8.582;2024-03-06T06:09:36;15.73;;;6.40;;
20828;SDS011;10575;50.124;8.582;2024-03-06T06:12:01;11.98;;;6.43;;
20828;SDS011;10575;50.124;8.582;2024-03-06T06:14:27;12.30;;;6.18;;
20828;SDS011;10575;50.124;8.582;2024-03-06T06:16:54;11.85;;;6.25;;
20828;SDS011;10575;50.124;8.582;2024-03-06T06:19:21;8.70;;;5.88;;
20828;SDS011;10575;50.124;8.582;2024-03-06T06:21:47;9.55;;;5.57;;
20828;SDS011;10575;50.124;8.582;2024-03-06T06:24:12;10.65;;;5.35;;
20828;SDS011;10575;50.124;8.582;2024-03-06T06:26:39;10.68;;;5.18;;
20828;SDS011;10575;50.124;8.582;2024-03-06T06:29:04;9.77;;;5.10;;
20828;SDS011;10575;50.124;8.582;2024-03-06T06:31:30;9.88;;;5.60;;
20828;SDS011;10575;50.124;8.582;2024-03-06T06:33:56;8.60;;;5.88;;
20828;SDS011;10575;50.124;8.582;2024-03-06T06:36:22;11.60;;;6.25;;
20828;SDS011;10575;50.124;8.582;2024-03-06T06:38:48;9.80;;;5.22;;
20828;SDS011;10575;50.124;8.582;2024-03-06T06:41:14;9.02;;;5.68;;
20828;SDS011;10575;50.124;8.582;2024-03-06T06:43:40;11.88;;;5.18;;
20828;SDS011;10575;50.124;8.582;2024-03-06T06:46:06;8.95;;;5.55;;
20828;SDS011;10575;50.124;8.582;2024-03-06T06:48:32;9.05;;;5.47;;
20828;SDS011;10575;50.124;8.582;2024-03-06T06:50:59;13.15;;;6.50;;
20828;SDS011;10575;50.124;8.582;2024-03-06T06:53:27;12.82;;;6.57;;
20828;SDS011;10575;50.124;8.582;2024-03-06T06:55:53;10.85;;;6.78;;
20828;SDS011;10575;50.124;8.582;2024-03-06T06:58:18;13.77;;;7.05;;
20828;SDS011;10575;50.124;8.582;2024-03-06T07:00:45;14.65;;;7.10;;
20828;SDS011;10575;50.124;8.582;2024-03-06T07:03:10;11.60;;;6.70;;
20828;SDS011;10575;50.124;8.582;2024-03-06T07:05:36;15.45;;;6.72;;
20828;SDS011;10575;50.124;8.582;2024-03-06T07:08:01;13.30;;;7.60;;
20828;SDS011;10575;50.124;8.582;2024-03-06T07:10:27;12.13;;;6.90;;
20828;SDS011;10575;50.124;8.582;2024-03-06T07:12:53;13.30;;;7.65;;
20828;SDS011;10575;50.124;8.582;2024-03-06T07:15:18;12.85;;;7.15;;
20828;SDS011;10575;50.124;8.582;2024-03-06T07:17:44;19.35;;;9.02;;
20828;SDS011;10575;50.124;8.582;2024-03-06T07:20:12;16.17;;;7.82;;
20828;SDS011;10575;50.124;8.582;2024-03-06T07:22:39;13.88;;;7.90;;
20828;SDS011;10575;50.124;8.582;2024-03-06T07:25:05;14.70;;;6.95;;
20828;SDS011;10575;50.124;8.582;2024-03-06T07:27:30;12.85;;;6.90;;
20828;SDS011;10575;50.124;8.582;2024-03-06T07:29:56;12.85;;;7.13;;
20828;SDS011;10575;50.124;8.582;2024-03-06T07:32:21;12.80;;;7.68;;
20828;SDS011;10575;50.124;8.582;2024-03-06T07:34:47;17.80;;;8.70;;
20828;SDS011;10575;50.124;8.582;2024-03-06T07:37:12;15.60;;;7.82;;
20828;SDS011;10575;50.124;8.582;2024-03-06T07:39:39;13.73;;;7.97;;
20828;SDS011;10575;50.124;8.582;2024-03-06T07:42:05;14.23;;;7.63;;
20828;SDS011;10575;50.124;8.582;2024-03-06T07:44:31;14.10;;;8.10;;
20828;SDS011;10575;50.124;8.582;2024-03-06T07:47:01;14.63;;;8.18;;
20828;SDS011;10575;50.124;8.582;2024-03-06T07:49:26;14.50;;;9.15;;
20828;SDS011;10575;50.124;8.582;2024-03-06T07:51:52;13.23;;;7.90;;
20828;SDS011;10575;50.124;8.582;2024-03-06T07:54:18;18.63;;;8.98;;
20828;SDS011;10575;50.124;8.582;2024-03-06T07:56:44;17.73;;;9.35;;
20828;SDS011;10575;50.124;8.582;2024-03-06T07:59:09;16.20;;;9.43;;
20828;SDS011;10575;50.124;8.582;2024-03-06T08:01:37;18.23;;;9.77;;
20828;SDS011;10575;50.124;8.582;2024-03-06T08:04:03;17.00;;;10.65;;
20828;SDS011;10575;50.124;8.582;2024-03-06T08:06:28;17.85;;;10.68;;
20828;SDS011;10575;50.124;8.582;2024-03-06T08:08:58;16.80;;;10.07;;
20828;SDS011;10575;50.124;8.582;2024-03-06T08:11:24;14.93;;;9.88;;
20828;SDS011;10575;50.124;8.582;2024-03-06T08:13:49;17.88;;;10.45;;
20828;SDS011;10575;50.124;8.582;2024-03-06T08:16:21;14.60;;;9.98;;
20828;SDS011;10575;50.124;8.582;2024-03-06T08:18:47;14.45;;;9.50;;
20828;SDS011;10575;50.124;8.582;2024-03-06T08:21:12;14.38;;;9.63;;
20828;SDS011;10575;50.124;8.582;2024-03-06T08:23:38;16.95;;;10.10;;
20828;SDS011;10575;50.124;8.582;2024-03-06T08:26:03;13.98;;;9.45;;
20828;SDS011;10575;50.124;8.582;2024-03-06T08:28:29;16.02;;;9.63;;
20828;SDS011;10575;50.124;8.582;2024-03-06T08:30:54;16.00;;;10.02;;
20828;SDS011;10575;50.124;8.582;2024-03-06T08:33:20;18.85;;;9.98;;
20828;SDS011;10575;50.124;8.582;2024-03-06T08:35:47;20.00;;;11.80;;
20828;SDS011;10575;50.124;8.582;2024-03-06T08:38:13;23.25;;;12.45;;
20828;SDS011;10575;50.124;8.582;2024-03-06T08:40:38;21.13;;;13.00;;
20828;SDS011;10575;50.124;8.582;2024-03-06T08:43:04;22.77;;;12.95;;
20828;SDS011;10575;50.124;8.582;2024-03-06T08:45:29;22.30;;;12.80;;
20828;SDS011;10575;50.124;8.582;2024-03-06T08:47:55;22.25;;;13.10;;
20828;SDS011;10575;50.124;8.582;2024-03-06T08:50:20;22.98;;;14.15;;
20828;SDS011;10575;50.124;8.582;2024-03-06T08:52:46;23.90;;;13.30;;
20828;SDS011;10575;50.124;8.582;2024-03-06T08:55:12;23.05;;;13.27;;
20828;SDS011;10575;50.124;8.582;2024-03-06T08:57:38;24.55;;;13.73;;
20828;SDS011;10575;50.124;8.582;2024-03-06T09:00:04;25.00;;;13.73;;
20828;SDS011;10575;50.124;8.582;2024-03-06T09:02:35;25.63;;;14.52;;
20828;SDS011;10575;50.124;8.582;2024-03-06T09:05:01;20.92;;;12.40;;
20828;SDS011;10575;50.124;8.582;2024-03-06T09:07:29;29.48;;;14.95;;
20828;SDS011;10575;50.124;8.582;2024-03-06T09:09:55;30.15;;;15.52;;
20828;SDS011;10575;50.124;8.582;2024-03-06T09:12:21;31.55;;;16.63;;
20828;SDS011;10575;50.124;8.582;2024-03-06T09:14:47;30.33;;;16.48;;
20828;SDS011;10575;50.124;8.582;2024-03-06T09:17:12;34.63;;;15.90;;
20828;SDS011;10575;50.124;8.582;2024-03-06T09:19:39;29.00;;;15.30;;
20828;SDS011;10575;50.124;8.582;2024-03-06T09:22:05;36.35;;;17.63;;
20828;SDS011;10575;50.124;8.582;2024-03-06T09:24:31;37.33;;;17.17;;
20828;SDS011;10575;50.124;8.582;2024-03-06T09:26:56;35.03;;;18.30;;
20828;SDS011;10575;50.124;8.582;2024-03-06T09:29:23;37.70;;;18.25;;
20828;SDS011;10575;50.124;8.582;2024-03-06T09:31:48;36.78;;;18.52;;
20828;SDS011;10575;50.124;8.582;2024-03-06T09:34:14;46.25;;;21.15;;
20828;SDS011;10575;50.124;8.582;2024-03-06T09:36:41;42.10;;;20.70;;
20828;SDS011;10575;50.124;8.582;2024-03-06T09:39:10;41.90;;;20.40;;
20828;SDS011;10575;50.124;8.582;2024-03-06T09:41:36;38.92;;;18.73;;
20828;SDS011;10575;50.124;8.582;2024-03-06T09:44:04;40.30;;;19.75;;
20828;SDS011;10575;50.124;8.582;2024-03-06T09:46:29;48.75;;;21.40;;
20828;SDS011;10575;50.124;8.582;2024-03-06T09:48:55;43.80;;;20.88;;
20828;SDS011;10575;50.124;8.582;2024-03-06T09:51:21;43.67;;;20.73;;
20828;SDS011;10575;50.124;8.582;2024-03-06T09:53:47;43.13;;;20.75;;
20828;SDS011;10575;50.124;8.582;2024-03-06T09:56:16;39.13;;;20.17;;
20828;SDS011;10575;50.124;8.582;2024-03-06T09:58:42;42.28;;;20.05;;
20828;SDS011;10575;50.124;8.582;2024-03-06T10:01:07;40.22;;;17.65;;
20828;SDS011;10575;50.124;8.582;2024-03-06T10:03:33;37.15;;;18.95;;
20828;SDS011;10575;50.124;8.582;2024-03-06T10:05:59;37.42;;;19.10;;
20828;SDS011;10575;50.124;8.582;2024-03-06T10:08:25;34.58;;;17.70;;
20828;SDS011;10575;50.124;8.582;2024-03-06T10:10:51;36.22;;;18.00;;
20828;SDS011;10575;50.124;8.582;2024-03-06T10:13:17;35.85;;;18.38;;
20828;SDS011;10575;50.124;8.582;2024-03-06T10:15:55;38.28;;;18.75;;
20828;SDS011;10575;50.124;8.582;2024-03-06T10:18:28;33.25;;;17.65;;
20828;SDS011;10575;50.124;8.582;2024-03-06T10:20:58;36.05;;;17.65;;
20828;SDS011;10575;50.124;8.582;2024-03-06T10:23:24;31.85;;;17.58;;
20828;SDS011;10575;50.124;8.582;2024-03-06T10:25:50;33.10;;;17.83;;
20828;SDS011;10575;50.124;8.582;2024-03-06T10:28:17;35.17;;;18.27;;
20828;SDS011;10575;50.124;8.582;2024-03-06T10:30:43;33.10;;;17.38;;
20828;SDS011;10575;50.124;8.582;2024-03-06T10:33:10;35.33;;;18.15;;
20828;SDS011;10575;50.124;8.582;2024-03-06T10:35:39;32.58;;;16.80;;
20828;SDS011;10575;50.124;8.582;2024-03-06T10:38:06;28.48;;;15.48;;
20828;SDS011;10575;50.124;8.582;2024-03-06T10:40:33;28.63;;;15.25;;
20828;SDS011;10575;50.124;8.582;2024-03-06T10:43:01;30.10;;;15.43;;
20828;SDS011;10575;50.124;8.582;2024-03-06T10:45:41;27.35;;;14.65;;
20828;SDS011;10575;50.124;8.582;2024-03-06T10:48:14;25.55;;;13.18;;
20828;SDS011;10575;50.124;8.582;2024-03-06T10:50:41;29.73;;;13.85;;
20828;SDS011;10575;50.124;8.582;2024-03-06T10:53:09;25.92;;;13.13;;
20828;SDS011;10575;50.124;8.582;2024-03-06T10:55:36;22.63;;;12.93;;
20828;SDS011;10575;50.124;8.582;2024-03-06T10:58:06;22.55;;;12.70;;
20828;SDS011;10575;50.124;8.582;2024-03-06T11:00:45;21.67;;;12.38;;
20828;SDS011;10575;50.124;8.582;2024-03-06T11:03:12;23.65;;;12.30;;
20828;SDS011;10575;50.124;8.582;2024-03-06T11:05:39;23.45;;;12.02;;
20828;SDS011;10575;50.124;8.582;2024-03-06T11:08:08;22.73;;;12.25;;
20828;SDS011;10575;50.124;8.582;2024-03-06T11:10:36;21.00;;;11.25;;
20828;SDS011;10575;50.124;8.582;2024-03-06T11:13:03;24.35;;;11.85;;
20828;SDS011;10575;50.124;8.582;2024-03-06T11:15:51;21.92;;;12.57;;
20828;SDS011;10575;50.124;8.582;2024-03-06T11:20:58;30.73;;;12.60;;
20828;SDS011;10575;50.124;8.582;2024-03-06T11:23:33;31.95;;;13.23;;
20828;SDS011;10575;50.124;8.582;2024-03-06T11:26:02;24.50;;;12.80;;
20828;SDS011;10575;50.124;8.582;2024-03-06T11:28:34;23.92;;;12.93;;
20828;SDS011;10575;50.124;8.582;2024-03-06T11:31:11;29.92;;;14.10;;
20828;SDS011;10575;50.124;8.582;2024-03-06T11:33:44;33.20;;;15.77;;
20828;SDS011;10575;50.124;8.582;2024-03-06T11:36:20;28.48;;;14.18;;
20828;SDS011;10575;50.124;8.582;2024-03-06T11:38:51;28.70;;;14.45;;
20828;SDS011;10575;50.124;8.582;2024-03-06T11:41:21;25.02;;;13.05;;
20828;SDS011;10575;50.124;8.582;2024-03-06T11:43:48;29.42;;;14.25;;
20828;SDS011;10575;50.124;8.582;2024-03-06T11:46:16;28.55;;;14.77;;
20828;SDS011;10575;50.124;8.582;2024-03-06T11:48:42;29.98;;;14.98;;
20828;SDS011;10575;50.124;8.582;2024-03-06T11:51:08;30.25;;;15.00;;
20828;SDS011;10575;50.124;8.582;2024-03-06T11:53:34;28.92;;;14.88;;
20828;SDS011;10575;50.124;8.582;2024-03-06T11:56:07;31.05;;;15.40;;
20828;SDS011;10575;50.124;8.582;2024-03-06T11:58:33;29.13;;;14.70;;
20828;SDS011;10575;50.124;8.582;2024-03-06T12:00:59;28.48;;;14.73;;
20828;SDS011;10575;50.124;8.582;2024-03-06T12:03:26;28.92;;;15.48;;
20828;SDS011;10575;50.124;8.582;2024-03-06T12:05:52;31.77;;;16.48;;
20828;SDS011;10575;50.124;8.582;2024-03-06T12:08:18;30.30;;;16.23;;
20828;SDS011;10575;50.124;8.582;2024-03-06T12:10:45;27.63;;;15.90;;
20828;SDS011;10575;50.124;8.582;2024-03-06T12:13:11;30.02;;;16.55;;
20828;SDS011;10575;50.124;8.582;2024-03-06T12:15:37;30.92;;;14.80;;
20828;SDS011;10575;50.124;8.582;2024-03-06T12:18:02;30.95;;;16.70;;
20828;SDS011;10575;50.124;8.582;2024-03-06T12:20:28;32.10;;;16.67;;
20828;SDS011;10575;50.124;8.582;2024-03-06T12:22:54;26.55;;;15.02;;
20828;SDS011;10575;50.124;8.582;2024-03-06T12:25:25;30.30;;;15.60;;
20828;SDS011;10575;50.124;8.582;2024-03-06T12:27:53;26.80;;;13.68;;
20828;SDS011;10575;50.124;8.582;2024-03-06T12:32:58;24.17;;;12.48;;
20828;SDS011;10575;50.124;8.582;2024-03-06T12:35:25;28.40;;;14.48;;
20828;SDS011;10575;50.124;8.582;2024-03-06T12:37:51;25.50;;;14.10;;
20828;SDS011;10575;50.124;8.582;2024-03-06T12:40:18;23.98;;;12.95;;
20828;SDS011;10575;50.124;8.582;2024-03-06T12:42:46;18.05;;;10.75;;
20828;SDS011;10575;50.124;8.582;2024-03-06T12:45:12;21.83;;;12.18;;
20828;SDS011;10575;50.124;8.582;2024-03-06T12:47:42;25.13;;;13.40;;
20828;SDS011;10575;50.124;8.582;2024-03-06T12:50:08;25.10;;;13.77;;
20828;SDS011;10575;50.124;8.582;2024-03-06T12:52:35;27.73;;;14.43;;
20828;SDS011;10575;50.124;8.582;2024-03-06T12:55:01;30.17;;;14.95;;
20828;SDS011;10575;50.124;8.582;2024-03-06T12:57:28;28.48;;;14.80;;
20828;SDS011;10575;50.124;8.582;2024-03-06T12:59:53;28.35;;;15.13;;
20828;SDS011;10575;50.124;8.582;2024-03-06T13:02:19;33.58;;;15.80;;
20828;SDS011;10575;50.124;8.582;2024-03-06T13:04:44;30.80;;;16.42;;
20828;SDS011;10575;50.124;8.582;2024-03-06T13:07:10;30.67;;;15.98;;
20828;SDS011;10575;50.124;8.582;2024-03-06T13:09:36;28.67;;;15.20;;
20828;SDS011;10575;50.124;8.582;2024-03-06T13:12:03;26.48;;;14.35;;
20828;SDS011;10575;50.124;8.582;2024-03-06T13:14:29;28.85;;;14.82;;
20828;SDS011;10575;50.124;8.582;2024-03-06T13:16:55;28.67;;;14.38;;
20828;SDS011;10575;50.124;8.582;2024-03-06T13:19:21;29.85;;;14.90;;
20828;SDS011;10575;50.124;8.582;2024-03-06T13:21:47;28.38;;;14.95;;
20828;SDS011;10575;50.124;8.582;2024-03-06T13:24:12;30.35;;;15.48;;
20828;SDS011;10575;50.124;8.582;2024-03-06T13:26:38;31.80;;;14.60;;
20828;SDS011;10575;50.124;8.582;2024-03-06T13:29:05;30.85;;;15.55;;
20828;SDS011;10575;50.124;8.582;2024-03-06T13:31:31;32.80;;;15.13;;
20828;SDS011;10575;50.124;8.582;2024-03-06T13:33:58;31.27;;;14.60;;
20828;SDS011;10575;50.124;8.582;2024-03-06T13:36:25;31.33;;;14.77;;
20828;SDS011;10575;50.124;8.582;2024-03-06T13:38:51;31.85;;;16.30;;
20828;SDS011;10575;50.124;8.582;2024-03-06T13:41:17;33.17;;;16.42;;
20828;SDS011;10575;50.124;8.582;2024-03-06T13:43:43;31.30;;;15.50;;
20828;SDS011;10575;50.124;8.582;2024-03-06T13:46:08;33.13;;;15.98;;
20828;SDS011;10575;50.124;8.582;2024-03-06T13:48:34;28.05;;;13.90;;
20828;SDS011;10575;50.124;8.582;2024-03-06T13:51:01;27.80;;;14.05;;
20828;SDS011;10575;50.124;8.582;2024-03-06T13:53:26;29.70;;;14.15;;
20828;SDS011;10575;50.124;8.582;2024-03-06T13:55:52;29.15;;;14.82;;
20828;SDS011;10575;50.124;8.582;2024-03-06T13:58:17;31.92;;;15.05;;
20828;SDS011;10575;50.124;8.582;2024-03-06T14:00:43;31.38;;;15.50;;
20828;SDS011;10575;50.124;8.582;2024-03-06T14:03:10;30.73;;;15.45;;
20828;SDS011;10575;50.124;8.582;2024-03-06T14:05:37;27.42;;;13.82;;
20828;SDS011;10575;50.124;8.582;2024-03-06T14:08:03;26.77;;;14.45;;
20828;SDS011;10575;50.124;8.582;2024-03-06T14:10:29;29.13;;;15.27;;
20828;SDS011;10575;50.124;8.582;2024-03-06T14:12:58;30.40;;;14.77;;
20828;SDS011;10575;50.124;8.582;2024-03-06T14:15:24;26.67;;;14.70;;
20828;SDS011;10575;50.124;8.582;2024-03-06T14:17:51;31.33;;;15.13;;
20828;SDS011;10575;50.124;8.582;2024-03-06T14:20:20;27.25;;;14.23;;
20828;SDS011;10575;50.124;8.582;2024-03-06T14:22:45;30.98;;;14.80;;
20828;SDS011;10575;50.124;8.582;2024-03-06T14:25:11;25.20;;;13.20;;
20828;SDS011;10575;50.124;8.582;2024-03-06T14:27:37;26.63;;;13.50;;
20828;SDS011;10575;50.124;8.582;2024-03-06T14:30:06;25.75;;;13.93;;
20828;SDS011;10575;50.124;8.582;2024-03-06T14:32:32;24.55;;;12.93;;
20828;SDS011;10575;50.124;8.582;2024-03-06T14:34:58;27.00;;;13.13;;
20828;SDS011;10575;50.124;8.582;2024-03-06T14:37:23;28.05;;;13.18;;
20828;SDS011;10575;50.124;8.582;2024-03-06T14:39:49;25.42;;;13.38;;
20828;SDS011;10575;50.124;8.582;2024-03-06T14:42:16;25.33;;;13.25;;
20828;SDS011;10575;50.124;8.582;2024-03-06T14:44:41;25.35;;;13.93;;
20828;SDS011;10575;50.124;8.582;2024-03-06T14:47:08;21.30;;;12.57;;
20828;SDS011;10575;50.124;8.582;2024-03-06T14:49:34;23.95;;;11.45;;
20828;SDS011;10575;50.124;8.582;2024-03-06T14:52:00;21.92;;;12.73;;
20828;SDS011;10575;50.124;8.582;2024-03-06T14:54:25;21.98;;;11.73;;
20828;SDS011;10575;50.124;8.582;2024-03-06T14:56:51;22.65;;;12.43;;
20828;SDS011;10575;50.124;8.582;2024-03-06T14:59:18;24.73;;;12.57;;
20828;SDS011;10575;50.124;8.582;2024-03-06T15:01:43;22.67;;;12.43;;
20828;SDS011;10575;50.124;8.582;2024-03-06T15:04:09;26.40;;;13.07;;
20828;SDS011;10575;50.124;8.582;2024-03-06T15:06:37;23.10;;;11.85;;
20828;SDS011;10575;50.124;8.582;2024-03-06T15:09:03;22.17;;;11.43;;